PWSweather.com
Personal Weather Stations
Station Observations
SANDHURSTWX
SandhurstGB

SandhurstGB

Lat: 51.3522, Lon: -0.7739

Elevation: 272.3

Station Type: Davis VP2

www.sandhurstweather.org.uk

High Low Average
Temperature 44.7°F7.1°C 37.5°F3.1°C 41.0°F5.0°C
Dew Point 39.9°F4.4°C 33.5°F0.8°C 36.8°F2.7°C
Winds 9.2 mph 14.8 kmh 1.2 mph 1.9 kmh 4.0 mph SE6.4 kmh SE
Wind Gusts 10.4 mph16.7 kmh 2.3 mph3.7 kmh 6.0 mph9.7 kmh
Humidity 93% 73% 85%
Pressure 29.97 in1014.9 mb 29.74 in1007.1 mb -
Precipitation 0.00 in0.0 mm - -
Hour Temp Dew Point Humidity Winds Wind Gusts Pressure Precip Precip Rate Daily Precip Total
12:00 AM 42.5°F5.8°C 39.4°F4.1°C 89% 5.8 mph S9.3 kmh S 9.2 mph14.8 kmh 29.97 in1014.9 mb - 0.00 in0.0 mm 0.00 in0.0 mm
01:00 AM 42.9°F6.1°C 39.9°F4.4°C 89% 4.6 mph SSE7.4 kmh SSE 6.9 mph11.1 kmh 29.95 in1014.2 mb - 0.00 in0.0 mm 0.00 in0.0 mm
02:00 AM 42.4°F5.8°C 39.4°F4.1°C 89% 1.2 mph SSE1.9 kmh SSE 4.6 mph7.4 kmh 29.95 in1014.2 mb - 0.00 in0.0 mm 0.00 in0.0 mm
03:00 AM 40.8°F4.9°C 38.4°F3.6°C 91% 2.3 mph S3.7 kmh S 2.3 mph3.7 kmh 29.94 in1013.9 mb - 0.00 in0.0 mm 0.00 in0.0 mm
04:00 AM 40.7°F4.8°C 38.6°F3.7°C 92% 3.5 mph SE5.6 kmh SE 5.8 mph9.3 kmh 29.93 in1013.5 mb - 0.00 in0.0 mm 0.00 in0.0 mm
05:00 AM 40.0°F4.4°C 37.9°F3.3°C 92% 1.2 mph SSW1.9 kmh SSW 4.6 mph7.4 kmh 29.92 in1013.2 mb - 0.00 in0.0 mm 0.00 in0.0 mm
06:00 AM 39.6°F4.2°C 37.7°F3.2°C 93% 1.2 mph S1.9 kmh S 2.3 mph3.7 kmh 29.92 in1013.2 mb - 0.00 in0.0 mm 0.00 in0.0 mm
07:00 AM 40.0°F4.4°C 37.9°F3.3°C 92% 1.2 mph SE1.9 kmh SE 3.5 mph5.6 kmh 29.92 in1013.2 mb - 0.00 in0.0 mm 0.00 in0.0 mm
08:00 AM 41.1°F5.1°C 38.1°F3.4°C 89% 3.5 mph SE5.6 kmh SE 9.2 mph14.8 kmh 29.93 in1013.5 mb - 0.00 in0.0 mm 0.00 in0.0 mm
09:00 AM 42.1°F5.6°C 37.9°F3.3°C 85% 2.3 mph ESE3.7 kmh ESE 3.5 mph5.6 kmh 29.93 in1013.5 mb - 0.00 in0.0 mm 0.00 in0.0 mm
10:00 AM 43.0°F6.1°C 38.2°F3.4°C 83% 5.8 mph SSE9.3 kmh SSE 9.2 mph14.8 kmh 29.91 in1012.9 mb - 0.00 in0.0 mm 0.00 in0.0 mm
11:00 AM 44.5°F6.9°C 37.7°F3.2°C 77% 9.2 mph SSE14.8 kmh SSE 8.1 mph13.0 kmh 29.89 in1012.2 mb - 0.00 in0.0 mm 0.00 in0.0 mm
12:00 PM 44.7°F7.1°C 37.3°F2.9°C 75% 6.9 mph S11.1 kmh S 10.4 mph16.7 kmh 29.88 in1011.9 mb - 0.00 in0.0 mm 0.00 in0.0 mm
01:00 PM 44.1°F6.7°C 36.3°F2.4°C 74% 4.6 mph S7.4 kmh S 8.1 mph13.0 kmh 29.85 in1010.8 mb - 0.00 in0.0 mm 0.00 in0.0 mm
02:00 PM 43.8°F6.6°C 35.7°F2.1°C 73% 5.8 mph SE9.3 kmh SE 9.2 mph14.8 kmh 29.81 in1009.5 mb - 0.00 in0.0 mm 0.00 in0.0 mm
03:00 PM 42.8°F6.0°C 35.0°F1.7°C 74% 4.6 mph SSE7.4 kmh SSE 8.1 mph13.0 kmh 29.80 in1009.1 mb - 0.00 in0.0 mm 0.00 in0.0 mm
04:00 PM 40.6°F4.8°C 34.3°F1.3°C 78% 2.3 mph SE3.7 kmh SE 3.5 mph5.6 kmh 29.79 in1008.8 mb - 0.00 in0.0 mm 0.00 in0.0 mm
05:00 PM 38.8°F3.8°C 33.5°F0.8°C 81% 2.3 mph SE3.7 kmh SE 3.5 mph5.6 kmh 29.79 in1008.8 mb - 0.00 in0.0 mm 0.00 in0.0 mm
06:00 PM 38.8°F3.8°C 34.1°F1.2°C 83% 4.6 mph ENE7.4 kmh ENE 8.1 mph13.0 kmh 29.78 in1008.5 mb - 0.00 in0.0 mm 0.00 in0.0 mm
07:00 PM 39.1°F3.9°C 34.7°F1.5°C 84% 5.8 mph E9.3 kmh E 10.4 mph16.7 kmh 29.78 in1008.5 mb - 0.00 in0.0 mm 0.00 in0.0 mm
08:00 PM 38.2°F3.4°C 34.7°F1.5°C 87% 6.9 mph E11.1 kmh E 8.1 mph13.0 kmh 29.77 in1008.1 mb - 0.00 in0.0 mm 0.00 in0.0 mm
09:00 PM 37.5°F3.1°C 34.6°F1.4°C 89% 3.5 mph E5.6 kmh E 4.6 mph7.4 kmh 29.76 in1007.8 mb - 0.00 in0.0 mm 0.00 in0.0 mm
10:00 PM 38.0°F3.3°C 35.4°F1.9°C 90% 2.3 mph E3.7 kmh E 6.9 mph11.1 kmh 29.75 in1007.5 mb - 0.00 in0.0 mm 0.00 in0.0 mm
11:00 PM 39.1°F3.9°C 36.1°F2.3°C 89% 3.5 mph SE5.6 kmh SE 5.8 mph9.3 kmh 29.74 in1007.1 mb - 0.00 in0.0 mm 0.00 in0.0 mm